DAL1332 KATL-KCMH
Flight info
| Callsign | DAL1332 |
|---|---|
| Flight time | 1h 4m |
| Altitude | 33000 |
| Route | PADGT2 SMTTH Q67 JONEN MCGNS SCRLT2 |
| Aircraft | A320/M-SDE3FGHIRWY/LB1 |
Departure
| Time | 2026-05-08 22:47 |
|---|---|
| Airport | Hartsfield Jackson Atlanta International Airport (KATL) |
Arrival
| Time | 2026-05-08 23:52 |
|---|---|
| Airport | John Glenn Columbus International Airport (KCMH) |
| Time | Latitude | Longitude | Altitude | Speed | Heading |
|---|---|---|---|---|---|
| 2026-05-08 22:14 | 33.64049 | -84.44203 | 1036 ft | 0 kts | 269° |
| 2026-05-08 22:32 | 33.64049 | -84.44181 | 1035 ft | 4 kts | 272° |
| 2026-05-08 22:33 | 33.64046 | -84.44149 | 1035 ft | 4 kts | 286° |
| 2026-05-08 22:33 | 33.64035 | -84.44123 | 1035 ft | 3 kts | 328° |
| 2026-05-08 22:33 | 33.64024 | -84.44118 | 1035 ft | 0 kts | 0° |
| 2026-05-08 22:36 | 33.64034 | -84.44118 | 1035 ft | 5 kts | 0° |
| 2026-05-08 22:37 | 33.64070 | -84.44117 | 1035 ft | 8 kts | 0° |
| 2026-05-08 22:37 | 33.64132 | -84.44117 | 1035 ft | 9 kts | 360° |
| 2026-05-08 22:37 | 33.64189 | -84.44117 | 1035 ft | 7 kts | 360° |
| 2026-05-08 22:37 | 33.64236 | -84.44117 | 1035 ft | 6 kts | 0° |
| 2026-05-08 22:38 | 33.64276 | -84.44117 | 1035 ft | 5 kts | 0° |
| 2026-05-08 22:38 | 33.64326 | -84.44117 | 1035 ft | 9 kts | 0° |
| 2026-05-08 22:38 | 33.64381 | -84.44117 | 1035 ft | 7 kts | 358° |
| 2026-05-08 22:38 | 33.64417 | -84.44079 | 1035 ft | 10 kts | 77° |
| 2026-05-08 22:39 | 33.64430 | -84.43976 | 1035 ft | 13 kts | 80° |
| 2026-05-08 22:39 | 33.64443 | -84.43867 | 1035 ft | 13 kts | 82° |
| 2026-05-08 22:39 | 33.64457 | -84.43747 | 1035 ft | 16 kts | 84° |
| 2026-05-08 22:39 | 33.64460 | -84.43607 | 1036 ft | 18 kts | 90° |
| 2026-05-08 22:40 | 33.64460 | -84.43450 | 1036 ft | 20 kts | 90° |
| 2026-05-08 22:40 | 33.64460 | -84.43281 | 1036 ft | 21 kts | 90° |
| 2026-05-08 22:40 | 33.64459 | -84.43102 | 1036 ft | 22 kts | 89° |
| 2026-05-08 22:40 | 33.64461 | -84.42909 | 1035 ft | 24 kts | 90° |
| 2026-05-08 22:41 | 33.64466 | -84.42723 | 1035 ft | 21 kts | 84° |
| 2026-05-08 22:41 | 33.64469 | -84.42575 | 1035 ft | 17 kts | 91° |
| 2026-05-08 22:41 | 33.64469 | -84.42425 | 1035 ft | 19 kts | 89° |
| 2026-05-08 22:41 | 33.64472 | -84.42268 | 1035 ft | 17 kts | 81° |
| 2026-05-08 22:42 | 33.64526 | -84.42145 | 1035 ft | 14 kts | 59° |
| 2026-05-08 22:42 | 33.64544 | -84.42052 | 1035 ft | 11 kts | 90° |
| 2026-05-08 22:42 | 33.64543 | -84.41963 | 1035 ft | 10 kts | 90° |
| 2026-05-08 22:42 | 33.64543 | -84.41884 | 1035 ft | 9 kts | 90° |
| 2026-05-08 22:43 | 33.64543 | -84.41788 | 1036 ft | 17 kts | 90° |
| 2026-05-08 22:43 | 33.64543 | -84.41627 | 1036 ft | 21 kts | 90° |
| 2026-05-08 22:43 | 33.64543 | -84.41446 | 1036 ft | 22 kts | 90° |
| 2026-05-08 22:43 | 33.64543 | -84.41256 | 1036 ft | 24 kts | 90° |
| 2026-05-08 22:44 | 33.64543 | -84.41054 | 1036 ft | 22 kts | 89° |
| 2026-05-08 22:44 | 33.64543 | -84.40894 | 1035 ft | 19 kts | 90° |
| 2026-05-08 22:44 | 33.64565 | -84.40784 | 1035 ft | 11 kts | 58° |
| 2026-05-08 22:44 | 33.64573 | -84.40728 | 1035 ft | 8 kts | 92° |
| 2026-05-08 22:45 | 33.64571 | -84.40652 | 1034 ft | 9 kts | 91° |
| 2026-05-08 22:45 | 33.64584 | -84.40589 | 1034 ft | 7 kts | 47° |
| 2026-05-08 22:45 | 33.64633 | -84.40573 | 1033 ft | 8 kts | 1° |
| 2026-05-08 22:45 | 33.64677 | -84.40587 | 1033 ft | 6 kts | 301° |
| 2026-05-08 22:46 | 33.64679 | -84.40631 | 1033 ft | 5 kts | 271° |
| 2026-05-08 22:46 | 33.64679 | -84.40633 | 1033 ft | 0 kts | 271° |
| 2026-05-08 22:46 | 33.64680 | -84.40656 | 1033 ft | 15 kts | 271° |
| 2026-05-08 22:46 | 33.64679 | -84.41123 | 1036 ft | 93 kts | 270° |
| 2026-05-08 22:47 | 33.64679 | -84.42151 | 1033 ft | 152 kts | 270° |
| 2026-05-08 22:47 | 33.64687 | -84.43555 | 1403 ft | 170 kts | 268° |
| 2026-05-08 22:47 | 33.64688 | -84.44963 | 2183 ft | 170 kts | 266° |
| 2026-05-08 22:47 | 33.64852 | -84.46414 | 2653 ft | 187 kts | 290° |
| 2026-05-08 22:48 | 33.65403 | -84.47895 | 3015 ft | 206 kts | 292° |
| 2026-05-08 22:48 | 33.66031 | -84.49562 | 3375 ft | 230 kts | 292° |
| 2026-05-08 22:48 | 33.66716 | -84.51391 | 3890 ft | 250 kts | 292° |
| 2026-05-08 22:48 | 33.67464 | -84.53365 | 4568 ft | 263 kts | 292° |
| 2026-05-08 22:49 | 33.68257 | -84.55327 | 5507 ft | 265 kts | 301° |
| 2026-05-08 22:49 | 33.71226 | -84.57971 | 7407 ft | 278 kts | 340° |
| 2026-05-08 22:49 | 33.73185 | -84.58171 | 8330 ft | 286 kts | 356° |
| 2026-05-08 22:50 | 33.75184 | -84.58098 | 9206 ft | 289 kts | 355° |
| 2026-05-08 22:50 | 33.77206 | -84.58067 | 10010 ft | 293 kts | 354° |
| 2026-05-08 22:50 | 33.79268 | -84.58056 | 10766 ft | 297 kts | 353° |
| 2026-05-08 22:50 | 33.81346 | -84.57910 | 11531 ft | 306 kts | 3° |
| 2026-05-08 22:51 | 33.83468 | -84.57272 | 11874 ft | 331 kts | 10° |
| 2026-05-08 22:51 | 33.85764 | -84.56458 | 12165 ft | 351 kts | 11° |
| 2026-05-08 22:51 | 33.88123 | -84.55583 | 12815 ft | 358 kts | 11° |
| 2026-05-08 22:51 | 33.90515 | -84.54677 | 13548 ft | 362 kts | 11° |
| 2026-05-08 22:52 | 33.92930 | -84.53761 | 14249 ft | 365 kts | 11° |
| 2026-05-08 22:52 | 33.95367 | -84.52846 | 14891 ft | 369 kts | 10° |
| 2026-05-08 22:52 | 33.97832 | -84.51927 | 15523 ft | 373 kts | 10° |
| 2026-05-08 22:52 | 34.00324 | -84.51006 | 16190 ft | 377 kts | 10° |
| 2026-05-08 22:53 | 34.02845 | -84.50077 | 16812 ft | 381 kts | 10° |
| 2026-05-08 22:53 | 34.05390 | -84.49138 | 17446 ft | 384 kts | 10° |
| 2026-05-08 22:53 | 34.07963 | -84.48188 | 18051 ft | 389 kts | 9° |
| 2026-05-08 22:53 | 34.10561 | -84.47231 | 18611 ft | 393 kts | 9° |
| 2026-05-08 22:54 | 34.13194 | -84.46262 | 19130 ft | 397 kts | 9° |
| 2026-05-08 22:54 | 34.15850 | -84.45279 | 19664 ft | 401 kts | 9° |
| 2026-05-08 22:54 | 34.18532 | -84.44280 | 20215 ft | 405 kts | 8° |
| 2026-05-08 22:54 | 34.21236 | -84.43271 | 20751 ft | 408 kts | 8° |
| 2026-05-08 22:55 | 34.23963 | -84.42254 | 21290 ft | 412 kts | 8° |
| 2026-05-08 22:55 | 34.26714 | -84.41230 | 21817 ft | 416 kts | 8° |
| 2026-05-08 22:55 | 34.29491 | -84.40217 | 22344 ft | 417 kts | 5° |
| 2026-05-08 22:55 | 34.32316 | -84.39492 | 22858 ft | 416 kts | 1° |
| 2026-05-08 22:56 | 34.35173 | -84.38810 | 23400 ft | 419 kts | 1° |
| 2026-05-08 22:56 | 34.38015 | -84.38131 | 23855 ft | 422 kts | 1° |
| 2026-05-08 22:56 | 34.40908 | -84.37437 | 24219 ft | 426 kts | 1° |
| 2026-05-08 22:56 | 34.43835 | -84.36735 | 24612 ft | 429 kts | 0° |
| 2026-05-08 22:57 | 34.45791 | -84.36266 | 24860 ft | 432 kts | 0° |
| 2026-05-08 22:57 | 34.48763 | -84.35550 | 25225 ft | 436 kts | 0° |
| 2026-05-08 22:57 | 34.52730 | -84.34584 | 25725 ft | 441 kts | 0° |
| 2026-05-08 22:57 | 34.55769 | -84.33843 | 26104 ft | 445 kts | 360° |
| 2026-05-08 22:58 | 34.57795 | -84.33352 | 26340 ft | 447 kts | 360° |
| 2026-05-08 22:58 | 34.60864 | -84.32610 | 26716 ft | 450 kts | 359° |
| 2026-05-08 22:58 | 34.63950 | -84.31865 | 27105 ft | 452 kts | 359° |
| 2026-05-08 22:58 | 34.67011 | -84.31127 | 27463 ft | 455 kts | 358° |
| 2026-05-08 22:59 | 34.70137 | -84.30373 | 27803 ft | 458 kts | 358° |
| 2026-05-08 22:59 | 34.73285 | -84.29608 | 28104 ft | 462 kts | 358° |
| 2026-05-08 22:59 | 34.76450 | -84.28839 | 28417 ft | 465 kts | 358° |
| 2026-05-08 22:59 | 34.79637 | -84.28062 | 28726 ft | 468 kts | 358° |
| 2026-05-08 23:00 | 34.82843 | -84.27281 | 29014 ft | 471 kts | 358° |
| 2026-05-08 23:00 | 34.86074 | -84.26494 | 29378 ft | 474 kts | 356° |
| 2026-05-08 23:00 | 34.89272 | -84.25715 | 29746 ft | 475 kts | 356° |
| 2026-05-08 23:00 | 34.92540 | -84.24920 | 30076 ft | 477 kts | 356° |
| 2026-05-08 23:01 | 34.95801 | -84.24126 | 30321 ft | 479 kts | 356° |
| 2026-05-08 23:01 | 34.99051 | -84.23335 | 30547 ft | 481 kts | 356° |
| 2026-05-08 23:01 | 35.02363 | -84.22526 | 30758 ft | 485 kts | 356° |
| 2026-05-08 23:01 | 35.05685 | -84.21711 | 30957 ft | 488 kts | 356° |
| 2026-05-08 23:02 | 35.09024 | -84.20891 | 31137 ft | 491 kts | 356° |
| 2026-05-08 23:02 | 35.12387 | -84.20066 | 31320 ft | 494 kts | 356° |
| 2026-05-08 23:02 | 35.15765 | -84.19240 | 31542 ft | 495 kts | 356° |
| 2026-05-08 23:02 | 35.19148 | -84.18415 | 31792 ft | 497 kts | 355° |
| 2026-05-08 23:03 | 35.22502 | -84.17592 | 32041 ft | 498 kts | 356° |
| 2026-05-08 23:03 | 35.25916 | -84.16748 | 32260 ft | 500 kts | 356° |
| 2026-05-08 23:03 | 35.29338 | -84.15902 | 32422 ft | 502 kts | 356° |
| 2026-05-08 23:03 | 35.32778 | -84.15053 | 32584 ft | 505 kts | 356° |
| 2026-05-08 23:04 | 35.36236 | -84.14198 | 32798 ft | 507 kts | 356° |
| 2026-05-08 23:04 | 35.39710 | -84.13337 | 32971 ft | 508 kts | 356° |
| 2026-05-08 23:04 | 35.46599 | -84.11626 | 32995 ft | 509 kts | 356° |
| 2026-05-08 23:05 | 35.53552 | -84.09910 | 32985 ft | 508 kts | 356° |
| 2026-05-08 23:05 | 35.60491 | -84.08198 | 32986 ft | 508 kts | 356° |
| 2026-05-08 23:06 | 35.67357 | -84.06483 | 33002 ft | 504 kts | 356° |
| 2026-05-08 23:06 | 35.74222 | -84.04771 | 32992 ft | 504 kts | 356° |
| 2026-05-08 23:07 | 35.81107 | -84.03059 | 32987 ft | 504 kts | 356° |
| 2026-05-08 23:07 | 35.87955 | -84.01341 | 32993 ft | 507 kts | 358° |
| 2026-05-08 23:08 | 35.91407 | -84.00037 | 32995 ft | 527 kts | 8° |
| 2026-05-08 23:08 | 35.94767 | -83.98029 | 32999 ft | 545 kts | 18° |
| 2026-05-08 23:08 | 36.01299 | -83.93341 | 33002 ft | 545 kts | 18° |
| 2026-05-08 23:09 | 36.07881 | -83.88618 | 32996 ft | 545 kts | 18° |
| 2026-05-08 23:09 | 36.14422 | -83.83943 | 33020 ft | 545 kts | 17° |
| 2026-05-08 23:10 | 36.21013 | -83.79232 | 32994 ft | 544 kts | 17° |
| 2026-05-08 23:10 | 36.27534 | -83.74554 | 32980 ft | 544 kts | 17° |
| 2026-05-08 23:11 | 36.34095 | -83.69826 | 33038 ft | 543 kts | 18° |
| 2026-05-08 23:11 | 36.40605 | -83.65126 | 32967 ft | 540 kts | 18° |
| 2026-05-08 23:12 | 36.47068 | -83.60461 | 32963 ft | 539 kts | 18° |
| 2026-05-08 23:12 | 36.53562 | -83.55763 | 32959 ft | 539 kts | 17° |
| 2026-05-08 23:13 | 36.60055 | -83.51053 | 32999 ft | 540 kts | 17° |
| 2026-05-08 23:13 | 36.66497 | -83.46375 | 32990 ft | 539 kts | 17° |
| 2026-05-08 23:14 | 36.72976 | -83.41668 | 32970 ft | 538 kts | 18° |
| 2026-05-08 23:14 | 36.79453 | -83.36935 | 32972 ft | 538 kts | 18° |
| 2026-05-08 23:15 | 36.85899 | -83.32198 | 32992 ft | 538 kts | 18° |
| 2026-05-08 23:15 | 36.92320 | -83.27485 | 32979 ft | 538 kts | 18° |
| 2026-05-08 23:16 | 36.98782 | -83.22722 | 32967 ft | 538 kts | 18° |
| 2026-05-08 23:16 | 37.05229 | -83.17962 | 33006 ft | 537 kts | 18° |
| 2026-05-08 23:17 | 37.11592 | -83.13242 | 32945 ft | 533 kts | 18° |
| 2026-05-08 23:17 | 37.17992 | -83.08501 | 32948 ft | 533 kts | 18° |
| 2026-05-08 23:18 | 37.24363 | -83.03775 | 32947 ft | 534 kts | 18° |
| 2026-05-08 23:18 | 37.30817 | -82.99224 | 33003 ft | 527 kts | 15° |
| 2026-05-08 23:19 | 37.37335 | -82.95043 | 32984 ft | 523 kts | 13° |
| 2026-05-08 23:19 | 37.43802 | -82.90948 | 32978 ft | 524 kts | 14° |
| 2026-05-08 23:20 | 37.50297 | -82.86705 | 33028 ft | 525 kts | 15° |
| 2026-05-08 23:20 | 37.53516 | -82.84558 | 32706 ft | 519 kts | 16° |
| 2026-05-08 23:20 | 37.56695 | -82.82422 | 31939 ft | 515 kts | 16° |
| 2026-05-08 23:21 | 37.59801 | -82.80342 | 31436 ft | 506 kts | 17° |
| 2026-05-08 23:21 | 37.62904 | -82.78272 | 31065 ft | 499 kts | 16° |
| 2026-05-08 23:21 | 37.65969 | -82.76246 | 30947 ft | 494 kts | 16° |
| 2026-05-08 23:21 | 37.69029 | -82.74243 | 30992 ft | 494 kts | 15° |
| 2026-05-08 23:22 | 37.75141 | -82.70233 | 30995 ft | 494 kts | 17° |
| 2026-05-08 23:22 | 37.81201 | -82.66210 | 30990 ft | 494 kts | 17° |
| 2026-05-08 23:23 | 37.87291 | -82.62151 | 30983 ft | 493 kts | 17° |
| 2026-05-08 23:23 | 37.93344 | -82.58111 | 30970 ft | 493 kts | 17° |
| 2026-05-08 23:24 | 37.99392 | -82.54044 | 30468 ft | 486 kts | 19° |
| 2026-05-08 23:24 | 38.02301 | -82.51949 | 30003 ft | 482 kts | 21° |
| 2026-05-08 23:24 | 38.05173 | -82.49758 | 29444 ft | 477 kts | 22° |
| 2026-05-08 23:25 | 38.07974 | -82.47542 | 28890 ft | 472 kts | 23° |
| 2026-05-08 23:25 | 38.10744 | -82.45329 | 28348 ft | 467 kts | 23° |
| 2026-05-08 23:25 | 38.13481 | -82.43155 | 27812 ft | 461 kts | 23° |
| 2026-05-08 23:25 | 38.16197 | -82.41025 | 27287 ft | 455 kts | 22° |
| 2026-05-08 23:26 | 38.18852 | -82.38972 | 26767 ft | 450 kts | 22° |
| 2026-05-08 23:26 | 38.21515 | -82.36922 | 26253 ft | 445 kts | 22° |
| 2026-05-08 23:26 | 38.24161 | -82.34892 | 25733 ft | 441 kts | 22° |
| 2026-05-08 23:26 | 38.26776 | -82.32884 | 25230 ft | 436 kts | 22° |
| 2026-05-08 23:27 | 38.29360 | -82.30891 | 24757 ft | 431 kts | 23° |
| 2026-05-08 23:27 | 38.31884 | -82.28938 | 24300 ft | 427 kts | 23° |
| 2026-05-08 23:27 | 38.34422 | -82.26971 | 23859 ft | 422 kts | 23° |
| 2026-05-08 23:27 | 38.36923 | -82.25029 | 23616 ft | 420 kts | 24° |
| 2026-05-08 23:28 | 38.39421 | -82.23089 | 23356 ft | 419 kts | 24° |
| 2026-05-08 23:28 | 38.41903 | -82.21164 | 23125 ft | 417 kts | 24° |
| 2026-05-08 23:28 | 38.44387 | -82.19405 | 22912 ft | 408 kts | 17° |
| 2026-05-08 23:28 | 38.47015 | -82.18119 | 22937 ft | 400 kts | 8° |
| 2026-05-08 23:29 | 38.49702 | -82.17320 | 22931 ft | 392 kts | 0° |
| 2026-05-08 23:29 | 38.52396 | -82.16989 | 22935 ft | 385 kts | 353° |
| 2026-05-08 23:29 | 38.55020 | -82.17104 | 22925 ft | 366 kts | 346° |
| 2026-05-08 23:29 | 38.57485 | -82.17533 | 22933 ft | 353 kts | 343° |
| 2026-05-08 23:30 | 38.59901 | -82.17985 | 22937 ft | 349 kts | 343° |
| 2026-05-08 23:30 | 38.62276 | -82.18434 | 22936 ft | 348 kts | 343° |
| 2026-05-08 23:30 | 38.64678 | -82.18888 | 22943 ft | 349 kts | 343° |
| 2026-05-08 23:30 | 38.67087 | -82.19344 | 22935 ft | 349 kts | 342° |
| 2026-05-08 23:31 | 38.69494 | -82.19798 | 22936 ft | 348 kts | 343° |
| 2026-05-08 23:31 | 38.71870 | -82.20244 | 22934 ft | 349 kts | 343° |
| 2026-05-08 23:31 | 38.74305 | -82.20698 | 22933 ft | 349 kts | 343° |
| 2026-05-08 23:31 | 38.76688 | -82.21142 | 22934 ft | 350 kts | 343° |
| 2026-05-08 23:32 | 38.79105 | -82.21593 | 22937 ft | 350 kts | 343° |
| 2026-05-08 23:32 | 38.81517 | -82.22046 | 22784 ft | 349 kts | 343° |
| 2026-05-08 23:32 | 38.83896 | -82.22413 | 22386 ft | 352 kts | 351° |
| 2026-05-08 23:32 | 38.86369 | -82.21890 | 22015 ft | 370 kts | 12° |
| 2026-05-08 23:33 | 38.88663 | -82.20229 | 21621 ft | 386 kts | 30° |
| 2026-05-08 23:33 | 38.90780 | -82.18067 | 21234 ft | 387 kts | 32° |
| 2026-05-08 23:33 | 38.92842 | -82.15905 | 20853 ft | 385 kts | 32° |
| 2026-05-08 23:33 | 38.94917 | -82.13728 | 20470 ft | 382 kts | 32° |
| 2026-05-08 23:34 | 38.96972 | -82.11576 | 20095 ft | 380 kts | 32° |
| 2026-05-08 23:34 | 38.99021 | -82.09437 | 19719 ft | 376 kts | 32° |
| 2026-05-08 23:34 | 39.01050 | -82.07324 | 19335 ft | 373 kts | 32° |
| 2026-05-08 23:34 | 39.03063 | -82.05233 | 18960 ft | 370 kts | 32° |
| 2026-05-08 23:35 | 39.05042 | -82.03205 | 18594 ft | 366 kts | 29° |
| 2026-05-08 23:35 | 39.07253 | -82.01706 | 18354 ft | 360 kts | 11° |
| 2026-05-08 23:35 | 39.09709 | -82.01130 | 17957 ft | 355 kts | 353° |
| 2026-05-08 23:35 | 39.12097 | -82.01577 | 17579 ft | 341 kts | 335° |
| 2026-05-08 23:36 | 39.14195 | -82.02880 | 17169 ft | 329 kts | 320° |
| 2026-05-08 23:36 | 39.16065 | -82.04551 | 16746 ft | 327 kts | 320° |
| 2026-05-08 23:36 | 39.17913 | -82.06196 | 16332 ft | 325 kts | 320° |
| 2026-05-08 23:36 | 39.19788 | -82.07854 | 15913 ft | 324 kts | 320° |
| 2026-05-08 23:37 | 39.21644 | -82.09496 | 15513 ft | 322 kts | 320° |
| 2026-05-08 23:37 | 39.23461 | -82.11108 | 15111 ft | 320 kts | 319° |
| 2026-05-08 23:37 | 39.25291 | -82.12737 | 14707 ft | 318 kts | 319° |
| 2026-05-08 23:37 | 39.27106 | -82.14352 | 14305 ft | 316 kts | 319° |
| 2026-05-08 23:38 | 39.28917 | -82.15962 | 13897 ft | 314 kts | 319° |
| 2026-05-08 23:38 | 39.30700 | -82.17549 | 13477 ft | 312 kts | 320° |
| 2026-05-08 23:38 | 39.32493 | -82.19147 | 13063 ft | 312 kts | 320° |
| 2026-05-08 23:38 | 39.34283 | -82.20745 | 12640 ft | 313 kts | 320° |
| 2026-05-08 23:39 | 39.36057 | -82.22332 | 12233 ft | 313 kts | 320° |
| 2026-05-08 23:39 | 39.37849 | -82.23935 | 11816 ft | 313 kts | 320° |
| 2026-05-08 23:39 | 39.39644 | -82.25538 | 11385 ft | 313 kts | 321° |
| 2026-05-08 23:39 | 39.41438 | -82.27143 | 10951 ft | 313 kts | 321° |
| 2026-05-08 23:40 | 39.43231 | -82.28749 | 10526 ft | 313 kts | 321° |
| 2026-05-08 23:40 | 39.44987 | -82.30318 | 10291 ft | 305 kts | 321° |
| 2026-05-08 23:40 | 39.46704 | -82.31850 | 10162 ft | 292 kts | 321° |
| 2026-05-08 23:40 | 39.48351 | -82.33323 | 10037 ft | 283 kts | 321° |
| 2026-05-08 23:41 | 39.49962 | -82.34769 | 10008 ft | 282 kts | 321° |
| 2026-05-08 23:41 | 39.51568 | -82.36233 | 10009 ft | 282 kts | 320° |
| 2026-05-08 23:41 | 39.53143 | -82.37711 | 10013 ft | 281 kts | 319° |
| 2026-05-08 23:41 | 39.54727 | -82.39218 | 10017 ft | 281 kts | 319° |
| 2026-05-08 23:42 | 39.56306 | -82.40728 | 10025 ft | 282 kts | 318° |
| 2026-05-08 23:42 | 39.57872 | -82.42225 | 9867 ft | 284 kts | 319° |
| 2026-05-08 23:42 | 39.59466 | -82.43741 | 9462 ft | 283 kts | 319° |
| 2026-05-08 23:42 | 39.61053 | -82.45243 | 9059 ft | 281 kts | 319° |
| 2026-05-08 23:43 | 39.62630 | -82.46731 | 8676 ft | 279 kts | 319° |
| 2026-05-08 23:43 | 39.64199 | -82.48213 | 8287 ft | 278 kts | 319° |
| 2026-05-08 23:43 | 39.65759 | -82.49688 | 7900 ft | 276 kts | 319° |
| 2026-05-08 23:43 | 39.67285 | -82.51138 | 7621 ft | 275 kts | 318° |
| 2026-05-08 23:44 | 39.68834 | -82.52613 | 7400 ft | 275 kts | 318° |
| 2026-05-08 23:44 | 39.70379 | -82.54084 | 7176 ft | 274 kts | 319° |
| 2026-05-08 23:44 | 39.71899 | -82.55522 | 6968 ft | 273 kts | 319° |
| 2026-05-08 23:44 | 39.73466 | -82.56930 | 6737 ft | 272 kts | 320° |
| 2026-05-08 23:45 | 39.75045 | -82.58309 | 6530 ft | 272 kts | 321° |
| 2026-05-08 23:45 | 39.76621 | -82.59676 | 6315 ft | 272 kts | 321° |
| 2026-05-08 23:45 | 39.78188 | -82.61038 | 6089 ft | 270 kts | 321° |
| 2026-05-08 23:45 | 39.79732 | -82.62382 | 5891 ft | 270 kts | 320° |
| 2026-05-08 23:46 | 39.81408 | -82.63488 | 5665 ft | 274 kts | 336° |
| 2026-05-08 23:46 | 39.83294 | -82.63987 | 5435 ft | 278 kts | 348° |
| 2026-05-08 23:46 | 39.85154 | -82.64369 | 5232 ft | 266 kts | 343° |
| 2026-05-08 23:46 | 39.86965 | -82.64852 | 4867 ft | 264 kts | 343° |
| 2026-05-08 23:47 | 39.88139 | -82.65179 | 4610 ft | 256 kts | 342° |
| 2026-05-08 23:47 | 39.89849 | -82.65643 | 4229 ft | 249 kts | 342° |
| 2026-05-08 23:47 | 39.91544 | -82.66112 | 3844 ft | 248 kts | 342° |
| 2026-05-08 23:47 | 39.93219 | -82.66586 | 3508 ft | 240 kts | 342° |
| 2026-05-08 23:48 | 39.94768 | -82.67190 | 3257 ft | 225 kts | 324° |
| 2026-05-08 23:48 | 39.95873 | -82.68484 | 3009 ft | 213 kts | 306° |
| 2026-05-08 23:48 | 39.96784 | -82.69986 | 2759 ft | 210 kts | 303° |
| 2026-05-08 23:48 | 39.97650 | -82.71505 | 2558 ft | 205 kts | 303° |
| 2026-05-08 23:49 | 39.98281 | -82.73090 | 2505 ft | 191 kts | 282° |
| 2026-05-08 23:49 | 39.98437 | -82.74724 | 2530 ft | 174 kts | 272° |
| 2026-05-08 23:49 | 39.98526 | -82.76273 | 2431 ft | 168 kts | 271° |
| 2026-05-08 23:49 | 39.98611 | -82.77762 | 2257 ft | 165 kts | 272° |
| 2026-05-08 23:50 | 39.98697 | -82.79252 | 2057 ft | 164 kts | 272° |
| 2026-05-08 23:50 | 39.98782 | -82.80730 | 1836 ft | 159 kts | 272° |
| 2026-05-08 23:50 | 39.98862 | -82.82099 | 1647 ft | 144 kts | 273° |
| 2026-05-08 23:50 | 39.98934 | -82.83357 | 1454 ft | 137 kts | 273° |
| 2026-05-08 23:51 | 39.99004 | -82.84579 | 1280 ft | 134 kts | 274° |
| 2026-05-08 23:51 | 39.99081 | -82.85788 | 1096 ft | 133 kts | 274° |
| 2026-05-08 23:51 | 39.99145 | -82.86968 | 920 ft | 131 kts | 272° |
| 2026-05-08 23:51 | 39.99208 | -82.88130 | 826 ft | 117 kts | 274° |
| 2026-05-08 23:52 | 39.99255 | -82.88952 | 824 ft | 69 kts | 274° |
| 2026-05-08 23:52 | 39.99294 | -82.89418 | 824 ft | 42 kts | 282° |
| 2026-05-08 23:52 | 39.99398 | -82.89673 | 822 ft | 14 kts | 304° |
| 2026-05-08 23:52 | 39.99464 | -82.89665 | 825 ft | 11 kts | 54° |
| 2026-05-08 23:53 | 39.99467 | -82.89579 | 825 ft | 9 kts | 95° |
| 2026-05-08 23:53 | 39.99462 | -82.89502 | 825 ft | 8 kts | 94° |
| 2026-05-08 23:53 | 39.99457 | -82.89410 | 825 ft | 14 kts | 94° |
| 2026-05-08 23:53 | 39.99449 | -82.89270 | 825 ft | 15 kts | 94° |
| 2026-05-08 23:54 | 39.99442 | -82.89138 | 825 ft | 14 kts | 95° |
| 2026-05-08 23:54 | 39.99432 | -82.88968 | 825 ft | 21 kts | 94° |
| 2026-05-08 23:54 | 39.99421 | -82.88774 | 825 ft | 21 kts | 94° |
| 2026-05-08 23:55 | 39.99401 | -82.88415 | 825 ft | 18 kts | 94° |
| 2026-05-08 23:55 | 39.99392 | -82.88251 | 825 ft | 19 kts | 95° |
| 2026-05-08 23:55 | 39.99382 | -82.88091 | 825 ft | 17 kts | 94° |
| 2026-05-08 23:55 | 39.99373 | -82.87941 | 825 ft | 17 kts | 94° |
| 2026-05-08 23:56 | 39.99384 | -82.87809 | 821 ft | 14 kts | 44° |
| 2026-05-08 23:56 | 39.99472 | -82.87785 | 825 ft | 13 kts | 4° |
| 2026-05-08 23:56 | 39.99573 | -82.87792 | 825 ft | 14 kts | 327° |
| 2026-05-08 23:56 | 39.99598 | -82.87904 | 825 ft | 10 kts | 293° |
| 2026-05-08 23:57 | 39.99670 | -82.87910 | 825 ft | 15 kts | 4° |
| 2026-05-08 23:57 | 39.99793 | -82.87898 | 825 ft | 18 kts | 4° |
| 2026-05-08 23:57 | 39.99914 | -82.87901 | 825 ft | 17 kts | 338° |
| 2026-05-08 23:57 | 39.99968 | -82.88029 | 825 ft | 18 kts | 274° |
| 2026-05-08 23:58 | 39.99977 | -82.88201 | 825 ft | 20 kts | 274° |
| 2026-05-08 23:58 | 40.00010 | -82.88355 | 825 ft | 18 kts | 281° |
| 2026-05-08 23:58 | 40.00020 | -82.88525 | 825 ft | 17 kts | 275° |
| 2026-05-08 23:58 | 40.00028 | -82.88670 | 825 ft | 14 kts | 273° |
| 2026-05-08 23:59 | 40.00029 | -82.88782 | 825 ft | 10 kts | 261° |
| 2026-05-08 23:59 | 39.99985 | -82.88801 | 825 ft | 7 kts | 160° |
| 2026-05-08 23:59 | 39.99948 | -82.88780 | 824 ft | 2 kts | 157° |
| 2026-05-08 23:59 | 39.99943 | -82.88778 | 822 ft | 1 kts | 157° |
| 2026-05-09 00:00 | 39.99941 | -82.88776 | 825 ft | 0 kts | 157° |